sensor_id;sensor_type;location;lat;lon;timestamp;pressure;altitude;pressure_sealevel;temperature;humidity
54144;BME280;40050;47.324;18.792;2024-03-22T00:01:42;1007.00;;;11.59;56.16
54144;BME280;40050;47.324;18.792;2024-03-22T00:03:43;1006.99;;;11.60;56.10
54144;BME280;40050;47.324;18.792;2024-03-22T00:05:44;1006.99;;;11.60;56.07
54144;BME280;40050;47.324;18.792;2024-03-22T00:07:44;1006.90;;;11.57;55.99
54144;BME280;40050;47.324;18.792;2024-03-22T00:09:45;1006.98;;;11.59;55.87
54144;BME280;40050;47.324;18.792;2024-03-22T00:11:46;1006.95;;;11.58;55.94
54144;BME280;40050;47.324;18.792;2024-03-22T00:13:47;1006.96;;;11.60;56.43
54144;BME280;40050;47.324;18.792;2024-03-22T00:15:48;1006.98;;;11.62;57.58
54144;BME280;40050;47.324;18.792;2024-03-22T00:17:49;1006.95;;;11.61;57.67
54144;BME280;40050;47.324;18.792;2024-03-22T00:19:50;1006.89;;;11.58;57.46
54144;BME280;40050;47.324;18.792;2024-03-22T00:21:51;1006.85;;;11.54;57.75
54144;BME280;40050;47.324;18.792;2024-03-22T00:23:51;1006.87;;;11.57;57.93
54144;BME280;40050;47.324;18.792;2024-03-22T00:25:52;1006.89;;;11.54;57.82
54144;BME280;40050;47.324;18.792;2024-03-22T00:27:54;1006.85;;;11.48;57.95
54144;BME280;40050;47.324;18.792;2024-03-22T00:29:55;1006.91;;;11.49;58.27
54144;BME280;40050;47.324;18.792;2024-03-22T00:31:56;1006.83;;;11.44;57.90
54144;BME280;40050;47.324;18.792;2024-03-22T00:33:57;1006.88;;;11.46;58.10
54144;BME280;40050;47.324;18.792;2024-03-22T00:35:58;1006.81;;;11.43;58.48
54144;BME280;40050;47.324;18.792;2024-03-22T00:37:59;1006.87;;;11.45;58.23
54144;BME280;40050;47.324;18.792;2024-03-22T00:40:00;1006.87;;;11.46;58.03
54144;BME280;40050;47.324;18.792;2024-03-22T00:42:00;1006.78;;;11.46;57.79
54144;BME280;40050;47.324;18.792;2024-03-22T00:44:01;1006.76;;;11.55;57.46
54144;BME280;40050;47.324;18.792;2024-03-22T00:46:02;1006.74;;;11.57;57.60
54144;BME280;40050;47.324;18.792;2024-03-22T00:48:03;1006.72;;;11.49;58.18
54144;BME280;40050;47.324;18.792;2024-03-22T00:50:05;1006.74;;;11.48;58.09
54144;BME280;40050;47.324;18.792;2024-03-22T00:52:06;1006.73;;;11.45;57.87
54144;BME280;40050;47.324;18.792;2024-03-22T00:54:07;1006.70;;;11.45;58.16
54144;BME280;40050;47.324;18.792;2024-03-22T00:56:08;1006.69;;;11.45;58.08
54144;BME280;40050;47.324;18.792;2024-03-22T00:58:09;1006.66;;;11.46;58.20
54144;BME280;40050;47.324;18.792;2024-03-22T01:00:10;1006.65;;;11.45;58.74
54144;BME280;40050;47.324;18.792;2024-03-22T01:02:11;1006.68;;;11.49;58.62
54144;BME280;40050;47.324;18.792;2024-03-22T01:04:12;1006.62;;;11.47;58.75
54144;BME280;40050;47.324;18.792;2024-03-22T01:06:12;1006.60;;;11.50;58.80
54144;BME280;40050;47.324;18.792;2024-03-22T01:08:13;1006.61;;;11.51;58.83
54144;BME280;40050;47.324;18.792;2024-03-22T01:10:14;1006.56;;;11.49;58.91
54144;BME280;40050;47.324;18.792;2024-03-22T01:12:15;1006.61;;;11.51;59.04
54144;BME280;40050;47.324;18.792;2024-03-22T01:14:16;1006.65;;;11.49;59.23
54144;BME280;40050;47.324;18.792;2024-03-22T01:16:17;1006.64;;;11.45;59.60
54144;BME280;40050;47.324;18.792;2024-03-22T01:18:18;1006.71;;;11.46;59.78
54144;BME280;40050;47.324;18.792;2024-03-22T01:20:19;1006.72;;;11.43;59.86
54144;BME280;40050;47.324;18.792;2024-03-22T01:22:19;1006.72;;;11.39;59.89
54144;BME280;40050;47.324;18.792;2024-03-22T01:24:20;1006.74;;;11.39;59.85
54144;BME280;40050;47.324;18.792;2024-03-22T01:26:21;1006.66;;;11.34;60.04
54144;BME280;40050;47.324;18.792;2024-03-22T01:28:22;1006.64;;;11.32;59.91
54144;BME280;40050;47.324;18.792;2024-03-22T01:30:23;1006.65;;;11.31;59.78
54144;BME280;40050;47.324;18.792;2024-03-22T01:32:24;1006.63;;;11.29;59.69
54144;BME280;40050;47.324;18.792;2024-03-22T01:34:25;1006.63;;;11.31;59.59
54144;BME280;40050;47.324;18.792;2024-03-22T01:36:26;1006.67;;;11.35;59.41
54144;BME280;40050;47.324;18.792;2024-03-22T01:38:26;1006.71;;;11.38;59.21
54144;BME280;40050;47.324;18.792;2024-03-22T01:40:27;1006.70;;;11.42;59.14
54144;BME280;40050;47.324;18.792;2024-03-22T01:42:28;1006.64;;;11.45;59.01
54144;BME280;40050;47.324;18.792;2024-03-22T01:44:31;1006.60;;;11.47;58.94
54144;BME280;40050;47.324;18.792;2024-03-22T01:46:32;1006.61;;;11.49;58.70
54144;BME280;40050;47.324;18.792;2024-03-22T01:48:33;1006.66;;;11.53;58.83
54144;BME280;40050;47.324;18.792;2024-03-22T01:50:34;1006.62;;;11.55;58.67
54144;BME280;40050;47.324;18.792;2024-03-22T01:52:36;1006.61;;;11.56;58.71
54144;BME280;40050;47.324;18.792;2024-03-22T01:54:37;1006.54;;;11.56;58.50
54144;BME280;40050;47.324;18.792;2024-03-22T01:56:38;1006.45;;;11.53;58.61
54144;BME280;40050;47.324;18.792;2024-03-22T01:58:39;1006.46;;;11.56;58.73
54144;BME280;40050;47.324;18.792;2024-03-22T02:00:40;1006.49;;;11.56;58.47
54144;BME280;40050;47.324;18.792;2024-03-22T02:02:41;1006.48;;;11.57;58.61
54144;BME280;40050;47.324;18.792;2024-03-22T02:04:42;1006.41;;;11.57;58.85
54144;BME280;40050;47.324;18.792;2024-03-22T02:06:43;1006.46;;;11.58;58.87
54144;BME280;40050;47.324;18.792;2024-03-22T02:08:44;1006.44;;;11.59;58.90
54144;BME280;40050;47.324;18.792;2024-03-22T02:10:44;1006.44;;;11.59;58.69
54144;BME280;40050;47.324;18.792;2024-03-22T02:12:46;1006.49;;;11.64;58.68
54144;BME280;40050;47.324;18.792;2024-03-22T02:14:46;1006.50;;;11.66;58.62
54144;BME280;40050;47.324;18.792;2024-03-22T02:16:47;1006.47;;;11.66;58.43
54144;BME280;40050;47.324;18.792;2024-03-22T02:18:48;1006.46;;;11.71;58.29
54144;BME280;40050;47.324;18.792;2024-03-22T02:20:49;1006.43;;;11.74;58.37
54144;BME280;40050;47.324;18.792;2024-03-22T02:22:50;1006.44;;;11.77;58.80
54144;BME280;40050;47.324;18.792;2024-03-22T02:24:51;1006.48;;;11.79;58.79
54144;BME280;40050;47.324;18.792;2024-03-22T02:26:52;1006.50;;;11.81;58.80
54144;BME280;40050;47.324;18.792;2024-03-22T02:28:53;1006.49;;;11.84;58.83
54144;BME280;40050;47.324;18.792;2024-03-22T02:30:54;1006.45;;;11.83;58.84
54144;BME280;40050;47.324;18.792;2024-03-22T02:32:55;1006.49;;;11.86;58.69
54144;BME280;40050;47.324;18.792;2024-03-22T02:34:55;1006.49;;;11.87;58.79
54144;BME280;40050;47.324;18.792;2024-03-22T02:36:56;1006.54;;;11.89;58.76
54144;BME280;40050;47.324;18.792;2024-03-22T02:38:57;1006.48;;;11.91;58.77
54144;BME280;40050;47.324;18.792;2024-03-22T02:40:58;1006.56;;;11.93;58.91
54144;BME280;40050;47.324;18.792;2024-03-22T02:42:59;1006.52;;;11.92;58.82
54144;BME280;40050;47.324;18.792;2024-03-22T02:45:00;1006.48;;;11.92;58.89
54144;BME280;40050;47.324;18.792;2024-03-22T02:47:01;1006.55;;;11.98;58.95
54144;BME280;40050;47.324;18.792;2024-03-22T02:49:02;1006.56;;;12.01;58.97
54144;BME280;40050;47.324;18.792;2024-03-22T02:51:03;1006.49;;;12.02;59.14
54144;BME280;40050;47.324;18.792;2024-03-22T02:53:04;1006.42;;;12.01;59.17
54144;BME280;40050;47.324;18.792;2024-03-22T02:55:05;1006.38;;;12.01;59.35
54144;BME280;40050;47.324;18.792;2024-03-22T02:57:06;1006.41;;;12.03;59.40
54144;BME280;40050;47.324;18.792;2024-03-22T02:59:07;1006.42;;;12.03;59.54
54144;BME280;40050;47.324;18.792;2024-03-22T03:01:07;1006.37;;;12.04;59.69
54144;BME280;40050;47.324;18.792;2024-03-22T03:03:08;1006.36;;;12.06;59.75
54144;BME280;40050;47.324;18.792;2024-03-22T03:05:09;1006.33;;;12.07;59.77
54144;BME280;40050;47.324;18.792;2024-03-22T03:07:10;1006.33;;;12.08;60.17
54144;BME280;40050;47.324;18.792;2024-03-22T03:09:11;1006.35;;;12.11;60.20
54144;BME280;40050;47.324;18.792;2024-03-22T03:11:13;1006.35;;;12.15;60.19
54144;BME280;40050;47.324;18.792;2024-03-22T03:13:15;1006.32;;;12.17;60.35
54144;BME280;40050;47.324;18.792;2024-03-22T03:15:16;1006.35;;;12.22;61.01
54144;BME280;40050;47.324;18.792;2024-03-22T03:17:17;1006.35;;;12.25;61.61
54144;BME280;40050;47.324;18.792;2024-03-22T03:19:18;1006.36;;;12.31;61.86
54144;BME280;40050;47.324;18.792;2024-03-22T03:21:18;1006.31;;;12.36;61.99
54144;BME280;40050;47.324;18.792;2024-03-22T03:23:19;1006.30;;;12.37;62.62
54144;BME280;40050;47.324;18.792;2024-03-22T03:25:20;1006.32;;;12.38;63.11
54144;BME280;40050;47.324;18.792;2024-03-22T03:27:21;1006.30;;;12.40;63.38
54144;BME280;40050;47.324;18.792;2024-03-22T03:29:22;1006.31;;;12.42;63.34
54144;BME280;40050;47.324;18.792;2024-03-22T03:31:23;1006.33;;;12.42;63.42
54144;BME280;40050;47.324;18.792;2024-03-22T03:33:24;1006.26;;;12.46;63.22
54144;BME280;40050;47.324;18.792;2024-03-22T03:35:25;1006.24;;;12.45;63.47
54144;BME280;40050;47.324;18.792;2024-03-22T03:37:26;1006.22;;;12.45;63.56
54144;BME280;40050;47.324;18.792;2024-03-22T03:39:27;1006.29;;;12.52;63.45
54144;BME280;40050;47.324;18.792;2024-03-22T03:41:28;1006.29;;;12.54;63.41
54144;BME280;40050;47.324;18.792;2024-03-22T03:43:28;1006.28;;;12.57;63.53
54144;BME280;40050;47.324;18.792;2024-03-22T03:45:29;1006.31;;;12.56;63.80
54144;BME280;40050;47.324;18.792;2024-03-22T03:47:30;1006.31;;;12.59;63.50
54144;BME280;40050;47.324;18.792;2024-03-22T03:49:31;1006.34;;;12.60;63.75
54144;BME280;40050;47.324;18.792;2024-03-22T03:51:32;1006.31;;;12.60;63.81
54144;BME280;40050;47.324;18.792;2024-03-22T03:53:33;1006.28;;;12.59;63.81
54144;BME280;40050;47.324;18.792;2024-03-22T03:55:34;1006.35;;;12.60;63.97
54144;BME280;40050;47.324;18.792;2024-03-22T03:57:35;1006.35;;;12.65;63.99
54144;BME280;40050;47.324;18.792;2024-03-22T03:59:36;1006.29;;;12.62;64.21
54144;BME280;40050;47.324;18.792;2024-03-22T04:01:37;1006.41;;;12.66;64.17
54144;BME280;40050;47.324;18.792;2024-03-22T04:03:37;1006.33;;;12.67;64.08
54144;BME280;40050;47.324;18.792;2024-03-22T04:05:38;1006.32;;;12.70;64.21
54144;BME280;40050;47.324;18.792;2024-03-22T04:07:39;1006.34;;;12.71;64.26
54144;BME280;40050;47.324;18.792;2024-03-22T04:09:40;1006.38;;;12.74;64.35
54144;BME280;40050;47.324;18.792;2024-03-22T04:11:41;1006.35;;;12.76;64.43
54144;BME280;40050;47.324;18.792;2024-03-22T04:13:42;1006.38;;;12.75;64.53
54144;BME280;40050;47.324;18.792;2024-03-22T04:15:43;1006.38;;;12.81;64.44
54144;BME280;40050;47.324;18.792;2024-03-22T04:17:44;1006.41;;;12.83;64.40
54144;BME280;40050;47.324;18.792;2024-03-22T04:19:44;1006.45;;;12.84;64.38
54144;BME280;40050;47.324;18.792;2024-03-22T04:21:45;1006.46;;;12.85;64.36
54144;BME280;40050;47.324;18.792;2024-03-22T04:23:47;1006.45;;;12.84;64.42
54144;BME280;40050;47.324;18.792;2024-03-22T04:25:57;1006.47;;;12.85;64.44
54144;BME280;40050;47.324;18.792;2024-03-22T04:27:58;1006.46;;;12.83;64.49
54144;BME280;40050;47.324;18.792;2024-03-22T04:29:59;1006.53;;;12.86;64.47
54144;BME280;40050;47.324;18.792;2024-03-22T04:32:00;1006.54;;;12.86;64.53
54144;BME280;40050;47.324;18.792;2024-03-22T04:34:01;1006.58;;;12.86;64.51
54144;BME280;40050;47.324;18.792;2024-03-22T04:36:03;1006.55;;;12.84;64.61
54144;BME280;40050;47.324;18.792;2024-03-22T04:38:04;1006.52;;;12.85;64.50
54144;BME280;40050;47.324;18.792;2024-03-22T04:40:05;1006.56;;;12.88;64.50
54144;BME280;40050;47.324;18.792;2024-03-22T04:42:06;1006.55;;;12.90;64.53
54144;BME280;40050;47.324;18.792;2024-03-22T04:44:07;1006.56;;;12.88;64.55
54144;BME280;40050;47.324;18.792;2024-03-22T04:46:08;1006.62;;;12.93;64.42
54144;BME280;40050;47.324;18.792;2024-03-22T04:48:09;1006.63;;;12.90;64.52
54144;BME280;40050;47.324;18.792;2024-03-22T04:50:10;1006.55;;;12.86;64.60
54144;BME280;40050;47.324;18.792;2024-03-22T04:52:11;1006.58;;;12.88;64.60
54144;BME280;40050;47.324;18.792;2024-03-22T04:54:12;1006.63;;;12.92;64.45
54144;BME280;40050;47.324;18.792;2024-03-22T04:56:13;1006.58;;;12.92;64.32
54144;BME280;40050;47.324;18.792;2024-03-22T04:58:14;1006.56;;;12.93;64.24
54144;BME280;40050;47.324;18.792;2024-03-22T05:00:15;1006.52;;;12.91;64.22
54144;BME280;40050;47.324;18.792;2024-03-22T05:02:16;1006.53;;;12.90;64.31
54144;BME280;40050;47.324;18.792;2024-03-22T05:04:17;1006.48;;;12.88;64.47
54144;BME280;40050;47.324;18.792;2024-03-22T05:06:18;1006.48;;;12.85;64.68
54144;BME280;40050;47.324;18.792;2024-03-22T05:08:19;1006.51;;;12.83;64.89
54144;BME280;40050;47.324;18.792;2024-03-22T05:10:20;1006.52;;;12.88;64.78
54144;BME280;40050;47.324;18.792;2024-03-22T05:12:21;1006.53;;;12.87;65.00
54144;BME280;40050;47.324;18.792;2024-03-22T05:14:22;1006.55;;;12.90;64.98
54144;BME280;40050;47.324;18.792;2024-03-22T05:16:23;1006.57;;;12.88;65.05
54144;BME280;40050;47.324;18.792;2024-03-22T05:18:23;1006.56;;;12.87;65.30
54144;BME280;40050;47.324;18.792;2024-03-22T05:20:25;1006.58;;;12.87;65.25
54144;BME280;40050;47.324;18.792;2024-03-22T05:22:26;1006.61;;;12.90;65.11
54144;BME280;40050;47.324;18.792;2024-03-22T05:24:27;1006.64;;;12.92;65.14
54144;BME280;40050;47.324;18.792;2024-03-22T05:26:27;1006.61;;;12.94;65.14
54144;BME280;40050;47.324;18.792;2024-03-22T05:28:28;1006.63;;;12.96;65.12
54144;BME280;40050;47.324;18.792;2024-03-22T05:30:29;1006.57;;;12.93;65.30
54144;BME280;40050;47.324;18.792;2024-03-22T05:32:30;1006.67;;;12.96;65.20
54144;BME280;40050;47.324;18.792;2024-03-22T05:34:31;1006.67;;;12.98;65.20
54144;BME280;40050;47.324;18.792;2024-03-22T05:36:32;1006.63;;;13.01;65.14
54144;BME280;40050;47.324;18.792;2024-03-22T05:38:33;1006.64;;;13.04;65.08
54144;BME280;40050;47.324;18.792;2024-03-22T05:40:37;1006.58;;;13.06;65.06
54144;BME280;40050;47.324;18.792;2024-03-22T05:42:38;1006.61;;;13.07;65.14
54144;BME280;40050;47.324;18.792;2024-03-22T05:44:39;1006.60;;;13.07;65.07
54144;BME280;40050;47.324;18.792;2024-03-22T05:46:40;1006.60;;;13.02;65.39
54144;BME280;40050;47.324;18.792;2024-03-22T05:48:40;1006.66;;;13.09;65.27
54144;BME280;40050;47.324;18.792;2024-03-22T05:50:41;1006.58;;;13.11;65.25
54144;BME280;40050;47.324;18.792;2024-03-22T05:52:42;1006.59;;;13.15;65.22
54144;BME280;40050;47.324;18.792;2024-03-22T05:54:43;1006.63;;;13.15;65.33
54144;BME280;40050;47.324;18.792;2024-03-22T05:56:44;1006.56;;;13.13;65.48
54144;BME280;40050;47.324;18.792;2024-03-22T05:58:45;1006.56;;;13.17;65.44
54144;BME280;40050;47.324;18.792;2024-03-22T06:00:46;1006.58;;;13.23;65.33
54144;BME280;40050;47.324;18.792;2024-03-22T06:02:47;1006.52;;;13.26;65.34
54144;BME280;40050;47.324;18.792;2024-03-22T06:04:48;1006.50;;;13.27;65.55
54144;BME280;40050;47.324;18.792;2024-03-22T06:06:49;1006.52;;;13.34;65.47
54144;BME280;40050;47.324;18.792;2024-03-22T06:08:50;1006.54;;;13.39;65.43
54144;BME280;40050;47.324;18.792;2024-03-22T06:10:54;1006.52;;;13.44;65.30
54144;BME280;40050;47.324;18.792;2024-03-22T06:12:55;1006.55;;;13.53;65.07
54144;BME280;40050;47.324;18.792;2024-03-22T06:14:56;1006.58;;;13.60;64.89
54144;BME280;40050;47.324;18.792;2024-03-22T06:16:57;1006.53;;;13.65;64.61
54144;BME280;40050;47.324;18.792;2024-03-22T06:18:58;1006.53;;;13.67;64.69
54144;BME280;40050;47.324;18.792;2024-03-22T06:20:59;1006.58;;;13.67;64.51
54144;BME280;40050;47.324;18.792;2024-03-22T06:23:00;1006.55;;;13.73;64.55
54144;BME280;40050;47.324;18.792;2024-03-22T06:25:01;1006.55;;;13.76;64.73
54144;BME280;40050;47.324;18.792;2024-03-22T06:27:02;1006.55;;;13.77;64.61
54144;BME280;40050;47.324;18.792;2024-03-22T06:29:03;1006.61;;;13.84;64.18
54144;BME280;40050;47.324;18.792;2024-03-22T06:31:04;1006.62;;;13.88;64.35
54144;BME280;40050;47.324;18.792;2024-03-22T06:33:05;1006.63;;;13.93;64.13
54144;BME280;40050;47.324;18.792;2024-03-22T06:35:06;1006.67;;;13.95;64.04
54144;BME280;40050;47.324;18.792;2024-03-22T06:39:38;1006.67;;;13.97;64.10
54144;BME280;40050;47.324;18.792;2024-03-22T06:46:37;1006.66;;;14.17;63.75
54144;BME280;40050;47.324;18.792;2024-03-22T06:48:38;1006.63;;;14.23;63.42
54144;BME280;40050;47.324;18.792;2024-03-22T06:50:39;1006.71;;;14.29;63.31
54144;BME280;40050;47.324;18.792;2024-03-22T06:52:40;1006.68;;;14.34;63.29
54144;BME280;40050;47.324;18.792;2024-03-22T06:54:41;1006.67;;;14.37;63.09
54144;BME280;40050;47.324;18.792;2024-03-22T06:56:42;1006.69;;;14.42;62.79
54144;BME280;40050;47.324;18.792;2024-03-22T06:58:43;1006.60;;;14.41;62.80
54144;BME280;40050;47.324;18.792;2024-03-22T07:00:44;1006.58;;;14.49;62.51
54144;BME280;40050;47.324;18.792;2024-03-22T07:02:45;1006.62;;;14.50;62.66
54144;BME280;40050;47.324;18.792;2024-03-22T07:04:46;1006.65;;;14.53;62.60
54144;BME280;40050;47.324;18.792;2024-03-22T07:06:47;1006.68;;;14.59;62.40
54144;BME280;40050;47.324;18.792;2024-03-22T07:08:48;1006.62;;;14.66;62.40
54144;BME280;40050;47.324;18.792;2024-03-22T07:10:48;1006.69;;;14.75;62.37
54144;BME280;40050;47.324;18.792;2024-03-22T07:12:49;1006.71;;;14.83;62.07
54144;BME280;40050;47.324;18.792;2024-03-22T07:14:50;1006.71;;;14.90;61.92
54144;BME280;40050;47.324;18.792;2024-03-22T07:16:51;1006.74;;;14.91;61.78
54144;BME280;40050;47.324;18.792;2024-03-22T07:18:52;1006.69;;;14.91;61.91
54144;BME280;40050;47.324;18.792;2024-03-22T07:20:53;1006.74;;;14.94;61.26
54144;BME280;40050;47.324;18.792;2024-03-22T07:22:54;1006.72;;;14.96;61.10
54144;BME280;40050;47.324;18.792;2024-03-22T07:24:55;1006.71;;;14.97;60.93
54144;BME280;40050;47.324;18.792;2024-03-22T07:26:56;1006.72;;;15.03;60.90
54144;BME280;40050;47.324;18.792;2024-03-22T07:28:58;1006.70;;;15.06;60.72
54144;BME280;40050;47.324;18.792;2024-03-22T07:30:59;1006.79;;;15.06;60.47
54144;BME280;40050;47.324;18.792;2024-03-22T07:33:26;1006.76;;;15.07;60.41
54144;BME280;40050;47.324;18.792;2024-03-22T07:35:51;1006.76;;;15.12;60.03
54144;BME280;40050;47.324;18.792;2024-03-22T07:37:52;1006.81;;;15.07;60.16
54144;BME280;40050;47.324;18.792;2024-03-22T08:00:43;1006.97;;;15.09;59.64
54144;BME280;40050;47.324;18.792;2024-03-22T08:02:45;1006.94;;;15.05;60.03
54144;BME280;40050;47.324;18.792;2024-03-22T08:06:52;1007.02;;;15.14;60.19
54144;BME280;40050;47.324;18.792;2024-03-22T08:08:53;1006.99;;;15.21;60.00
54144;BME280;40050;47.324;18.792;2024-03-22T08:10:55;1007.02;;;15.24;59.71
54144;BME280;40050;47.324;18.792;2024-03-22T08:12:56;1007.03;;;15.21;59.92
54144;BME280;40050;47.324;18.792;2024-03-22T08:14:58;1007.08;;;15.20;60.21
54144;BME280;40050;47.324;18.792;2024-03-22T08:16:59;1007.07;;;15.24;59.43
54144;BME280;40050;47.324;18.792;2024-03-22T08:19:00;1007.09;;;15.29;59.56
54144;BME280;40050;47.324;18.792;2024-03-22T08:21:01;1007.05;;;15.34;59.21
54144;BME280;40050;47.324;18.792;2024-03-22T08:23:02;1007.02;;;15.37;58.80
54144;BME280;40050;47.324;18.792;2024-03-22T08:25:03;1007.05;;;15.40;58.93
54144;BME280;40050;47.324;18.792;2024-03-22T08:27:04;1007.05;;;15.47;58.72
54144;BME280;40050;47.324;18.792;2024-03-22T08:29:05;1007.04;;;15.50;58.46
54144;BME280;40050;47.324;18.792;2024-03-22T08:33:25;1006.98;;;15.50;58.60
54144;BME280;40050;47.324;18.792;2024-03-22T08:41:40;1007.11;;;15.48;58.49
54144;BME280;40050;47.324;18.792;2024-03-22T08:43:42;1007.04;;;15.48;58.43
54144;BME280;40050;47.324;18.792;2024-03-22T08:45:43;1007.03;;;15.49;58.74
54144;BME280;40050;47.324;18.792;2024-03-22T09:06:45;1006.95;;;15.76;58.31
54144;BME280;40050;47.324;18.792;2024-03-22T09:08:47;1006.93;;;15.83;57.95
54144;BME280;40050;47.324;18.792;2024-03-22T09:10:48;1006.90;;;15.93;57.65
54144;BME280;40050;47.324;18.792;2024-03-22T09:12:49;1006.88;;;15.98;57.88
54144;BME280;40050;47.324;18.792;2024-03-22T09:16:50;1006.88;;;16.04;57.63
54144;BME280;40050;47.324;18.792;2024-03-22T09:22:59;1006.84;;;16.26;57.70
54144;BME280;40050;47.324;18.792;2024-03-22T09:25:04;1006.82;;;16.36;57.43
54144;BME280;40050;47.324;18.792;2024-03-22T09:59:03;1006.47;;;18.29;51.53
54144;BME280;40050;47.324;18.792;2024-03-22T10:01:04;1006.43;;;18.39;52.01
54144;BME280;40050;47.324;18.792;2024-03-22T10:03:05;1006.45;;;18.52;52.48
54144;BME280;40050;47.324;18.792;2024-03-22T10:05:07;1006.41;;;18.70;51.88
54144;BME280;40050;47.324;18.792;2024-03-22T10:07:08;1006.39;;;18.78;50.86
54144;BME280;40050;47.324;18.792;2024-03-22T10:09:09;1006.36;;;18.91;51.07
54144;BME280;40050;47.324;18.792;2024-03-22T10:11:09;1006.34;;;18.98;50.83
54144;BME280;40050;47.324;18.792;2024-03-22T10:13:10;1006.31;;;19.07;49.96
54144;BME280;40050;47.324;18.792;2024-03-22T10:15:11;1006.26;;;19.15;49.29
54144;BME280;40050;47.324;18.792;2024-03-22T10:17:12;1006.26;;;19.18;49.45
54144;BME280;40050;47.324;18.792;2024-03-22T10:19:13;1006.20;;;19.24;48.77
54144;BME280;40050;47.324;18.792;2024-03-22T10:21:17;1006.28;;;19.30;48.51
54144;BME280;40050;47.324;18.792;2024-03-22T10:23:18;1006.24;;;19.37;48.46
54144;BME280;40050;47.324;18.792;2024-03-22T10:25:21;1006.29;;;19.40;47.86
54144;BME280;40050;47.324;18.792;2024-03-22T10:27:22;1006.23;;;19.44;48.26
54144;BME280;40050;47.324;18.792;2024-03-22T10:29:23;1006.17;;;19.46;48.33
54144;BME280;40050;47.324;18.792;2024-03-22T10:31:23;1006.21;;;19.59;48.11
54144;BME280;40050;47.324;18.792;2024-03-22T10:33:24;1006.19;;;19.71;47.85
54144;BME280;40050;47.324;18.792;2024-03-22T10:35:27;1006.16;;;19.78;47.11
54144;BME280;40050;47.324;18.792;2024-03-22T10:37:28;1006.17;;;19.84;46.97
54144;BME280;40050;47.324;18.792;2024-03-22T10:39:30;1006.14;;;19.93;47.13
54144;BME280;40050;47.324;18.792;2024-03-22T10:41:31;1006.15;;;19.95;46.65
54144;BME280;40050;47.324;18.792;2024-03-22T10:43:32;1006.17;;;19.98;46.30
54144;BME280;40050;47.324;18.792;2024-03-22T10:45:33;1006.12;;;20.01;46.21
54144;BME280;40050;47.324;18.792;2024-03-22T10:47:36;1006.08;;;19.99;45.62
54144;BME280;40050;47.324;18.792;2024-03-22T10:50:02;1006.05;;;19.91;45.09
54144;BME280;40050;47.324;18.792;2024-03-22T10:52:11;1006.04;;;19.97;45.20
54144;BME280;40050;47.324;18.792;2024-03-22T10:54:20;1006.07;;;20.08;45.39
54144;BME280;40050;47.324;18.792;2024-03-22T11:11:19;1006.05;;;20.35;41.50
54144;BME280;40050;47.324;18.792;2024-03-22T11:17:49;1006.00;;;20.35;39.03
54144;BME280;40050;47.324;18.792;2024-03-22T11:19:53;1005.98;;;20.33;34.68
54144;BME280;40050;47.324;18.792;2024-03-22T11:21:54;1005.96;;;20.30;35.54
54144;BME280;40050;47.324;18.792;2024-03-22T11:23:55;1006.00;;;20.40;33.85
54144;BME280;40050;47.324;18.792;2024-03-22T11:28:11;1005.94;;;20.38;34.27
54144;BME280;40050;47.324;18.792;2024-03-22T11:30:13;1005.91;;;20.38;35.26
54144;BME280;40050;47.324;18.792;2024-03-22T11:32:14;1005.95;;;20.39;34.93
54144;BME280;40050;47.324;18.792;2024-03-22T11:34:15;1005.89;;;20.38;34.51
54144;BME280;40050;47.324;18.792;2024-03-22T11:36:25;1005.78;;;20.41;34.84
54144;BME280;40050;47.324;18.792;2024-03-22T11:38:44;1005.84;;;20.39;35.49
54144;BME280;40050;47.324;18.792;2024-03-22T11:43:03;1005.82;;;20.53;36.44
54144;BME280;40050;47.324;18.792;2024-03-22T11:45:10;1005.83;;;20.62;37.52
54144;BME280;40050;47.324;18.792;2024-03-22T11:51:53;1005.82;;;20.87;38.46
54144;BME280;40050;47.324;18.792;2024-03-22T11:53:56;1005.77;;;20.94;38.12
54144;BME280;40050;47.324;18.792;2024-03-22T11:55:57;1005.77;;;20.91;38.67
54144;BME280;40050;47.324;18.792;2024-03-22T12:02:35;1005.67;;;20.85;39.10
54144;BME280;40050;47.324;18.792;2024-03-22T12:04:40;1005.61;;;20.84;39.69
54144;BME280;40050;47.324;18.792;2024-03-22T12:22:00;1005.39;;;21.02;38.25
54144;BME280;40050;47.324;18.792;2024-03-22T12:24:02;1005.36;;;21.05;37.59
54144;BME280;40050;47.324;18.792;2024-03-22T12:38:39;1005.35;;;20.92;37.66
54144;BME280;40050;47.324;18.792;2024-03-22T12:40:40;1005.24;;;20.98;37.40
54144;BME280;40050;47.324;18.792;2024-03-22T12:42:42;1005.19;;;21.00;38.13
54144;BME280;40050;47.324;18.792;2024-03-22T12:44:43;1005.26;;;21.05;36.97
54144;BME280;40050;47.324;18.792;2024-03-22T12:46:44;1005.14;;;21.04;37.33
54144;BME280;40050;47.324;18.792;2024-03-22T12:48:45;1005.16;;;21.08;37.65
54144;BME280;40050;47.324;18.792;2024-03-22T12:50:46;1005.08;;;21.14;37.21
54144;BME280;40050;47.324;18.792;2024-03-22T12:52:47;1005.06;;;21.17;36.49
54144;BME280;40050;47.324;18.792;2024-03-22T12:55:06;1005.07;;;21.22;36.73
54144;BME280;40050;47.324;18.792;2024-03-22T12:57:04;1005.04;;;21.21;36.59
54144;BME280;40050;47.324;18.792;2024-03-22T12:59:14;1005.04;;;21.18;35.55
54144;BME280;40050;47.324;18.792;2024-03-22T13:01:18;1005.01;;;21.10;36.21
54144;BME280;40050;47.324;18.792;2024-03-22T13:03:25;1004.98;;;21.06;36.05
54144;BME280;40050;47.324;18.792;2024-03-22T13:05:26;1004.96;;;21.02;36.13
54144;BME280;40050;47.324;18.792;2024-03-22T13:09:53;1004.87;;;20.89;37.11
54144;BME280;40050;47.324;18.792;2024-03-22T13:14:36;1004.81;;;20.99;37.09
54144;BME280;40050;47.324;18.792;2024-03-22T13:17:13;1004.85;;;20.89;37.36
54144;BME280;40050;47.324;18.792;2024-03-22T13:18:59;1004.81;;;20.76;37.12
54144;BME280;40050;47.324;18.792;2024-03-22T13:23:34;1004.81;;;20.83;37.04
54144;BME280;40050;47.324;18.792;2024-03-22T13:25:37;1004.76;;;20.82;36.38
54144;BME280;40050;47.324;18.792;2024-03-22T13:27:38;1004.71;;;20.80;36.17
54144;BME280;40050;47.324;18.792;2024-03-22T13:29:39;1004.67;;;20.78;36.43